Green River, Vermont
Current Conditions -  °F | °C
As of 7:15 PM on Friday 21 Nov 2014 (Local Time) from KEEN Reporting Station
Clear Clear  
Wind Chill: 18°   Ceiling: Unl
Heat Index: 25°   Visibility: 10mi
Dew Point:   Wind: 6mph
Humidity: 43%   Direction: 260°W
Pressure: 30.35"   Gusts: NA
Location:  42.8513°N, 72.6568°W
Report Text: KEEN 220015Z AUTO 26005KT 10SM CLR M04/M15 A3035 RMK AO1
Loading
Personal Weather Stations






























Interactive Weather Map New forecast layout! Learn more

10-Day Weather Forecast

Advertisements
Track Severe Weather on mobile